Weather observations for the past three days for
Topeka, Forbes Field
Metric (Imperial)
Date Time (cdt) Wind (kph) Vis. (km) Weather Sky Cond. Temperature (ºC) Relative Humidity Wind Chill (°C) Heat Index (°C) Pressure Precipitation (cm)
Air Dwpt 6 hour altimeter (cm) sea level (mb) 1 hr 3 hr 6 hr
Max. Min.
07 13:53 SW 41 G 50 16.09 A Few Clouds and Breezy FEW055 19.4 6.7 44% 76 1012.9
07 12:53 SW 37 G 48 16.09 A Few Clouds and Breezy FEW049 17.8 6.1 18.3 6.1 46% 76.05 1013.6
07 11:53 SW 39 G 52 16.09 Partly Cloudy and Breezy SCT047 16.7 6.1 50% 76.12 1014.7
07 10:53 W 28 G 46 16.09 Fair CLR 15 6.1 56% 76.17 1015.6
07 09:53 SW 24 16.09 Fair CLR 14.4 6.7 60% 76.23 1016.2
07 08:53 SW 24 16.09 Fair CLR 12.2 6.1 67% 76.25 1016.6
07 07:53 SW 15 16.09 Fair CLR 8.9 5.6 80% 7 76.25 1016.6
07 06:53 S 9 16.09 Fair CLR 6.1 4.4 7.8 5 89% 4 76.25 1016.7
07 05:53 SW 9 16.09 Fair CLR 6.7 3.9 83% 5 76.25 1016.6
07 04:53 SW 13 16.09 Fair CLR 6.7 3.9 83% 4 76.28 1016.7
07 03:53 SW 13 16.09 Fair CLR 7.2 3.9 80% 5 76.28 1017.0
07 02:53 SW 13 16.09 Fair CLR 7.2 3.9 80% 5 76.3 1017.3
07 01:53 SW 11 16.09 Fair CLR 6.7 3.9 83% 5 76.33 1017.7
07 00:53 SW 9 16.09 Fair CLR 7.8 4.4 15 7.8 79% 6 76.35 1018.0
06 23:53 S 11 16.09 Fair CLR 8.3 3.9 74% 7 76.38 1018.2
06 22:53 S 11 16.09 Fair CLR 8.3 2.8 69% 7 76.35 1018.1
06 21:53 S 11 16.09 Fair CLR 8.9 1.7 61% 7 76.35 1018.1
06 08:53 W 13 16.09 Overcast OVC 10 3 62% 8 76.45 0.0
06 07:53 W 7 16.09 Fair CLR 8 4 76% 7 76.38 0.0
06 06:53 Calm 16.09 Fair CLR 7 5 87% 76.28 0.0
05 21:53 NE 7 16.09 Overcast OVC085 11.1 2.8 57% 76.05 1013.8
05 20:53 N 9 16.09 Overcast OVC090 11.1 1.7 53% 75.97 1012.8
05 19:53 N 11 16.09 Overcast OVC085 12.2 2.2 51% 75.92 1012.2
05 18:53 N 13 16.09 Overcast OVC085 12.8 5 12.8 8.9 59% 75.9 1011.7
05 17:53 N 13 16.09 Overcast OVC085 12.2 6.7 69% 75.9 1011.5
05 16:53 NW 11 16.09 Overcast OVC080 11.7 5.6 66% 75.9 1011.7
05 15:53 N 9 16.09 Overcast OVC070 11.1 5.6 69% 75.92 1012.2
05 14:53 N 6 16.09 Overcast OVC070 10.6 6.1 74% 75.95 1012.5
05 13:53 N 13 16.09 Overcast OVC065 10.6 6.7 77% 75.97 1012.6
05 12:53 E 11 16.09 Light Rain BKN060 OVC080 8.9 6.7 11.1 8.3 86% 7 76 1013.1 0.1 0.46
05 11:53 NE 9 4.02 Heavy Rain Fog/Mist SCT060 BKN075 OVC090 8.9 6.7 86% 8 76 1012.8 0.15
05 10:53 NE 13 16.09 Light Rain FEW039 OVC085 8.9 6.7 86% 7 75.97 1012.6
05 09:53 NE 9 16.09 Overcast SCT080 OVC090 8.9 6.7 86% 8 75.97 1012.5 0.05 0.2
05 08:53 NE 17 12.87 Rain FEW060 FEW070 OVC090 8.3 6.1 86% 6 75.9 1011.6 0.03
05 07:53 N 11 12.87 Rain FEW055 BKN075 OVC090 8.9 6.1 83% 7 75.87 1011.0 0.13
05 06:53 E 17 16.09 Overcast OVC090 11.1 2.8 16.7 10.6 57% 75.67 1008.3 0.33
05 05:53 NE 17 16.09 Thunderstorm in Vicinity FEW065 OVC085 11.7 1.1 48% 75.67 1008.1
05 04:53 NE 19 G 31 16.09 Overcast BKN090 OVC110 12.2 1.7 49% 75.67 1008.0
05 03:53 N 20 G 33 16.09 Fair CLR 12.2 2.8 53% 75.64 1007.6 0.33
05 02:53 N 13 16.09 A Few Clouds FEW120 11.7 5 64% 75.54 1006.4 0.03
05 01:53 Vrbl 7 9.66 Rain OVC080 11.1 7.2 77% 75.64 1007.7 0.3
05 00:53 N 28 G 43 16.09 Light Rain FEW055 OVC095 16.7 3.3 22.8 16.7 41% 75.46 1005.0 0.03 0.05
04 23:53 N 19 G 43 16.09 Thunderstorm in Vicinity Light Rain BKN050 BKN065 OVC110 17.8 7.2 50% 75.39 1004.2 0.03
04 22:53 N 28 G 43 16.09 Mostly Cloudy SCT050 BKN065 21.7 8.3 42% 75.31 1003.2
04 21:53 S 11 16.09 Fair CLR 19.4 14.4 73% 75.23 1002.2
04 20:53 S 7 16.09 Fair CLR 19.4 13.9 71% 75.18 1001.6
04 19:53 Calm 16.09 Fair CLR 22.8 16.1 66% 75.13 1000.9
04 18:53 Calm 16.09 Fair CLR 24.4 15.6 27.8 24.4 58% 26 75.13 1001.1
04 17:53 S 11 16.09 Fair CLR 25.6 12.8 45% 26 75.13 1001.0
04 16:53 SW 13 16.09 Fair CLR 26.7 11.1 38% 27 75.13 1000.9
04 15:53 SW 15 16.09 Fair CLR 27.2 10.6 35% 27 75.18 1001.4
04 14:53 SW 17 14.48 Fair CLR 26.7 10.6 37% 26 75.21 1001.7
Date Time (cdt) Wind (kph) Vis. (km) Weather Sky Cond. Air Dwpt Max. Min. Relative Humidity Wind Chill (°C) Heat Index (°C) altimeter (cm) sea level (mb) 1 hr 3 hr 6 hr
6 hour
Temperature (ºC) Pressure Precipitation (cm)